Time;durP1;ratioP1;P1;durP2;ratioP2;P2;SDS_P1;SDS_P2;PMS_P1;PMS_P2;Temp;Humidity;BMP_temperature;BMP_pressure;BME280_temperature;BME280_humidity;BME280_pressure;Samples;Min_cycle;Max_cycle;Signal;HPM_P1;HPM_P2
2021/06/04 00:01:37;;;;;;;6.93;6.43;;;17.10;99.90;;;;;;5048264;28;20854;-71
2021/06/04 00:04:05;;;;;;;7.47;6.87;;;17.10;99.90;;;;;;5049374;28;20177;-71
2021/06/04 00:06:31;;;;;;;6.50;6.00;;;17.10;99.90;;;;;;5056232;28;20423;-71
2021/06/04 00:08:56;;;;;;;6.23;5.77;;;17.00;99.90;;;;;;5054520;28;20427;-71
2021/06/04 00:11:32;;;;;;;6.90;6.30;;;17.00;99.90;;;;;;5055271;28;20177;-71
2021/06/04 00:14:11;;;;;;;8.47;7.77;;;16.90;99.90;;;;;;5056818;28;20197;-71
2021/06/04 00:16:49;;;;;;;8.20;7.50;;;16.80;99.90;;;;;;5054141;28;20430;-71
2021/06/04 00:19:20;;;;;;;7.60;7.00;;;16.80;99.90;;;;;;5057070;28;20431;-71
2021/06/04 00:21:49;;;;;;;7.33;6.73;;;16.80;99.90;;;;;;5051218;28;20455;-71
2021/06/04 00:24:15;;;;;;;7.63;6.97;;;16.80;99.90;;;;;;5056594;28;20427;-71
2021/06/04 00:26:44;;;;;;;5.73;5.33;;;16.70;99.90;;;;;;5054370;28;20430;-71
2021/06/04 00:29:10;;;;;;;6.03;5.67;;;16.70;99.90;;;;;;5055176;28;20427;-71
2021/06/04 00:31:36;;;;;;;6.20;5.80;;;16.70;99.90;;;;;;5054953;28;20656;-72
2021/06/04 00:34:03;;;;;;;7.10;6.60;;;16.70;99.90;;;;;;5053801;28;20975;-71
2021/06/04 00:36:28;;;;;;;7.00;6.50;;;16.70;99.90;;;;;;5054904;28;20434;-71
2021/06/04 00:38:55;;;;;;;7.00;6.30;;;16.70;99.90;;;;;;5054640;28;20782;-71
2021/06/04 00:41:26;;;;;;;7.53;6.93;;;16.70;99.90;;;;;;5055665;28;20197;-71
2021/06/04 00:43:53;;;;;;;6.30;5.87;;;16.70;99.90;;;;;;5054952;28;20530;-71
2021/06/04 00:46:20;;;;;;;6.60;6.10;;;16.70;99.90;;;;;;5052149;28;20424;-71
2021/06/04 00:48:46;;;;;;;6.70;6.10;;;16.70;99.90;;;;;;5057178;28;20443;-71
2021/06/04 00:51:23;;;;;;;8.20;7.50;;;16.70;99.90;;;;;;5056852;28;20434;-71
2021/06/04 00:53:51;;;;;;;8.30;7.60;;;16.70;99.90;;;;;;5056266;28;20451;-71
2021/06/04 00:56:18;;;;;;;9.40;8.60;;;16.70;99.90;;;;;;5051242;28;20928;-71
2021/06/04 00:58:47;;;;;;;8.00;7.40;;;16.70;99.90;;;;;;5047504;28;20434;-71
2021/06/04 01:01:15;;;;;;;6.37;5.80;;;16.70;99.90;;;;;;5052512;28;20466;-71
2021/06/04 01:03:51;;;;;;;6.67;6.10;;;16.70;99.90;;;;;;5057533;28;20427;-70
2021/06/04 01:06:20;;;;;;;6.90;6.30;;;16.70;99.90;;;;;;5056378;28;20459;-71
2021/06/04 01:09:06;;;;;;;8.07;7.47;;;16.70;99.90;;;;;;5058149;28;20408;-70
2021/06/04 01:11:53;;;;;;;6.63;6.03;;;16.70;99.90;;;;;;5055794;28;20483;-71
2021/06/04 01:14:42;;;;;;;8.10;7.50;;;16.60;99.90;;;;;;5055852;28;22684;-71
2021/06/04 01:17:42;;;;;;;8.27;7.57;;;16.60;99.90;;;;;;5050100;28;20896;-71
2021/06/04 01:20:25;;;;;;;7.87;7.27;;;16.60;99.90;;;;;;5053568;28;20952;-71
2021/06/04 01:22:51;;;;;;;8.20;7.60;;;16.60;99.90;;;;;;5051562;28;20430;-71
2021/06/04 01:25:28;;;;;;;8.60;6.90;;;16.60;99.90;;;;;;5051575;28;20428;-71
2021/06/04 01:27:57;;;;;;;7.83;7.23;;;16.60;99.90;;;;;;5053269;28;20165;-71
2021/06/04 01:30:36;;;;;;;7.30;6.80;;;16.60;99.90;;;;;;5050796;28;20534;-71
2021/06/04 01:33:13;;;;;;;8.33;7.70;;;16.60;99.90;;;;;;5052119;28;20751;-71
2021/06/04 01:35:46;;;;;;;8.17;7.50;;;16.60;99.90;;;;;;5051644;28;20422;-71
2021/06/04 01:38:15;;;;;;;7.80;7.10;;;16.60;99.90;;;;;;5050809;28;20822;-71
2021/06/04 01:40:47;;;;;;;7.00;6.50;;;16.60;99.90;;;;;;5052042;28;20566;-71
2021/06/04 01:43:17;;;;;;;8.63;8.03;;;16.70;99.90;;;;;;5053554;28;20410;-71
2021/06/04 01:45:49;;;;;;;8.00;7.40;;;16.60;99.90;;;;;;5051309;28;20444;-71
2021/06/04 01:48:19;;;;;;;7.03;6.53;;;16.70;99.90;;;;;;5052097;28;20536;-71
2021/06/04 01:50:59;;;;;;;7.40;6.80;;;16.70;99.90;;;;;;5047659;28;20438;-71
2021/06/04 01:53:36;;;;;;;7.33;6.83;;;16.70;99.90;;;;;;5050937;28;20492;-71
2021/06/04 01:56:11;;;;;;;8.20;7.50;;;16.70;99.90;;;;;;5051633;28;20513;-71
2021/06/04 01:58:52;;;;;;;9.10;7.63;;;16.70;99.90;;;;;;5051370;28;20500;-71
2021/06/04 02:01:28;;;;;;;7.80;7.23;;;16.70;99.90;;;;;;5049455;28;20979;-71
2021/06/04 02:03:55;;;;;;;9.40;8.60;;;16.70;99.90;;;;;;5053908;28;20456;-71
2021/06/04 02:06:21;;;;;;;7.70;7.13;;;16.60;99.90;;;;;;5052311;28;20434;-71
2021/06/04 02:08:53;;;;;;;7.77;7.10;;;16.60;99.90;;;;;;5050001;28;20434;-71
2021/06/04 02:11:25;;;;;;;8.13;7.43;;;16.60;99.90;;;;;;5052008;28;20574;-71
2021/06/04 02:13:52;;;;;;;8.60;8.00;;;16.50;99.90;;;;;;5051428;28;20552;-71
2021/06/04 02:16:50;;;;;;;7.60;7.10;;;16.40;99.90;;;;;;5052192;28;20459;-71
2021/06/04 02:19:38;;;;;;;8.40;7.80;;;16.40;99.90;;;;;;5053944;28;20533;-71
2021/06/04 02:22:21;;;;;;;8.47;7.60;;;16.30;99.90;;;;;;5052192;28;20769;-71
2021/06/04 02:25:10;;;;;;;7.47;6.87;;;16.30;99.90;;;;;;5051141;28;20506;-71
2021/06/04 02:27:40;;;;;;;8.67;6.93;;;16.20;99.90;;;;;;5051369;28;20419;-71
2021/06/04 02:30:28;;;;;;;7.80;7.20;;;16.20;99.90;;;;;;5052268;28;20612;-71
2021/06/04 02:33:11;;;;;;;9.13;7.47;;;16.20;99.90;;;;;;5051111;28;20416;-71
2021/06/04 02:35:44;;;;;;;8.17;7.50;;;16.10;99.90;;;;;;5050720;28;20927;-71
2021/06/04 02:38:28;;;;;;;7.57;6.97;;;16.10;99.90;;;;;;5053229;28;20407;-71
2021/06/04 02:41:09;;;;;;;9.17;8.43;;;16.00;99.90;;;;;;5051139;28;20620;-71
2021/06/04 02:43:42;;;;;;;7.43;6.83;;;16.00;99.90;;;;;;5049585;28;20737;-71
2021/06/04 02:46:13;;;;;;;8.00;7.40;;;15.90;99.90;;;;;;5049448;28;20416;-71
2021/06/04 02:48:42;;;;;;;8.43;7.67;;;15.90;99.90;;;;;;5049675;28;20435;-70
2021/06/04 02:51:10;;;;;;;8.47;7.87;;;15.80;99.90;;;;;;5050948;28;20423;-71
2021/06/04 02:53:50;;;;;;;8.40;7.70;;;15.80;99.90;;;;;;5052315;28;20431;-71
2021/06/04 02:56:30;;;;;;;8.67;7.77;;;15.80;99.90;;;;;;5050407;28;20870;-71
2021/06/04 02:59:06;;;;;;;8.30;7.60;;;15.80;99.90;;;;;;5049866;28;20779;-71
2021/06/04 03:01:34;;;;;;;7.23;6.77;;;15.70;99.90;;;;;;5049364;28;20478;-71
2021/06/04 03:04:03;;;;;;;7.87;7.07;;;15.70;99.90;;;;;;5049079;28;20438;-71
2021/06/04 03:06:36;;;;;;;7.90;7.20;;;15.70;99.90;;;;;;5050430;28;20892;-70
2021/06/04 03:09:06;;;;;;;8.93;8.23;;;15.60;99.90;;;;;;5050823;28;20958;-70
2021/06/04 03:11:33;;;;;;;8.63;7.70;;;15.60;99.90;;;;;;5051822;28;20431;-71
2021/06/04 03:14:02;;;;;;;8.57;7.90;;;15.50;99.90;;;;;;5049124;28;20480;-71
2021/06/04 03:16:29;;;;;;;7.57;6.97;;;15.50;99.90;;;;;;5049864;28;21441;-71
2021/06/04 03:19:00;;;;;;;8.30;7.23;;;15.50;99.90;;;;;;5047614;28;20818;-71
2021/06/04 03:21:28;;;;;;;8.80;6.97;;;15.50;99.90;;;;;;5050458;28;20458;-70
2021/06/04 03:23:56;;;;;;;8.03;7.43;;;15.40;99.90;;;;;;5051568;28;20433;-71
2021/06/04 03:26:25;;;;;;;7.20;6.70;;;15.40;99.90;;;;;;5049181;28;20428;-70
2021/06/04 03:28:53;;;;;;;7.53;7.03;;;15.40;99.90;;;;;;5051113;28;20451;-71
2021/06/04 03:31:21;;;;;;;8.30;7.60;;;15.40;99.90;;;;;;5049616;28;20438;-71
2021/06/04 03:33:47;;;;;;;7.67;7.07;;;15.30;99.90;;;;;;5049226;28;20876;-70
2021/06/04 03:36:17;;;;;;;8.60;7.87;;;15.20;99.90;;;;;;5049465;28;20431;-70
2021/06/04 03:38:43;;;;;;;7.53;6.97;;;15.20;99.90;;;;;;5049165;28;20431;-70
2021/06/04 03:41:13;;;;;;;8.67;7.87;;;15.20;99.90;;;;;;5048517;28;20905;-70
2021/06/04 03:43:40;;;;;;;8.20;7.50;;;15.20;99.90;;;;;;5051310;28;20427;-70
2021/06/04 03:46:06;;;;;;;10.20;9.40;;;15.20;99.90;;;;;;5049310;28;20427;-71
2021/06/04 03:48:34;;;;;;;8.93;8.33;;;15.10;99.90;;;;;;5048027;28;20546;-71
2021/06/04 03:51:06;;;;;;;9.57;8.10;;;15.00;99.90;;;;;;5047564;28;20465;-71
2021/06/04 03:53:32;;;;;;;8.03;7.43;;;15.10;99.90;;;;;;5050030;28;20438;-71
2021/06/04 03:55:58;;;;;;;8.03;7.43;;;15.10;99.90;;;;;;5050152;28;20460;-70
2021/06/04 03:58:25;;;;;;;7.93;7.23;;;15.10;99.90;;;;;;5048699;28;20514;-71
2021/06/04 04:00:54;;;;;;;8.50;7.80;;;15.10;99.90;;;;;;5050730;28;20207;-70
2021/06/04 04:03:22;;;;;;;8.23;7.57;;;15.10;99.90;;;;;;5048992;28;20416;-70
2021/06/04 04:05:49;;;;;;;10.70;9.07;;;15.10;99.90;;;;;;5051245;28;20424;-70
2021/06/04 04:08:17;;;;;;;7.97;7.37;;;15.20;99.90;;;;;;5050112;28;20762;-70
2021/06/04 04:10:43;;;;;;;10.23;9.20;;;15.30;99.90;;;;;;5050232;28;20954;-70
2021/06/04 04:13:10;;;;;;;8.80;8.00;;;15.20;99.90;;;;;;5049540;28;20431;-70
2021/06/04 04:15:36;;;;;;;8.50;7.80;;;15.30;99.90;;;;;;5048112;28;20259;-70
2021/06/04 04:18:03;;;;;;;8.90;8.30;;;15.30;99.90;;;;;;5047589;28;20431;-71
2021/06/04 04:20:42;;;;;;;8.80;8.00;;;15.30;99.90;;;;;;5050211;28;21041;-70
2021/06/04 04:23:09;;;;;;;8.20;7.50;;;15.30;99.90;;;;;;5047288;28;20428;-70
2021/06/04 04:25:40;;;;;;;8.90;8.13;;;15.40;99.90;;;;;;5048343;28;20454;-71
2021/06/04 04:28:09;;;;;;;9.20;8.40;;;15.40;99.90;;;;;;5048427;28;20877;-71
2021/06/04 04:30:35;;;;;;;10.43;9.53;;;15.40;99.90;;;;;;5046648;28;20432;-71
2021/06/04 04:33:01;;;;;;;9.30;8.50;;;15.50;99.90;;;;;;5047469;28;20427;-70
2021/06/04 04:35:30;;;;;;;9.07;8.30;;;15.50;99.90;;;;;;5049960;28;20268;-70
2021/06/04 04:37:56;;;;;;;9.43;8.43;;;15.50;99.90;;;;;;5049328;28;20239;-70
2021/06/04 04:40:25;;;;;;;8.00;7.30;;;15.60;99.90;;;;;;5049134;28;20849;-70
2021/06/04 04:42:51;;;;;;;9.90;8.87;;;15.60;99.90;;;;;;5048821;28;20247;-71
2021/06/04 04:45:21;;;;;;;9.23;8.43;;;15.60;99.90;;;;;;5046818;28;21011;-70
2021/06/04 04:47:46;;;;;;;8.00;7.30;;;15.70;99.90;;;;;;5044261;28;20900;-71
2021/06/04 04:50:13;;;;;;;10.17;9.27;;;15.70;99.90;;;;;;5048048;28;20434;-71
2021/06/04 04:52:39;;;;;;;9.50;8.70;;;15.80;99.90;;;;;;5052243;28;20180;-71
2021/06/04 04:55:07;;;;;;;10.10;9.20;;;15.90;99.90;;;;;;5054407;28;20505;-70
2021/06/04 04:57:33;;;;;;;9.63;8.83;;;15.90;99.90;;;;;;5052579;28;20399;-71
2021/06/04 04:59:59;;;;;;;10.70;9.70;;;15.90;99.90;;;;;;5048609;28;20435;-70
2021/06/04 05:02:25;;;;;;;9.93;9.13;;;16.00;99.90;;;;;;5050186;28;20459;-71
2021/06/04 05:04:51;;;;;;;13.60;12.43;;;16.00;99.90;;;;;;5054575;28;20626;-70
2021/06/04 05:07:17;;;;;;;11.17;10.27;;;16.10;99.90;;;;;;5049368;28;20423;-71
2021/06/04 05:09:43;;;;;;;13.13;11.87;;;16.20;99.90;;;;;;5048873;28;20427;-70
2021/06/04 05:12:09;;;;;;;15.23;13.83;;;16.30;99.90;;;;;;5053020;28;20424;-70
2021/06/04 05:14:35;;;;;;;12.73;11.37;;;16.30;99.90;;;;;;5049584;28;20177;-70
2021/06/04 05:17:01;;;;;;;12.90;11.70;;;16.40;99.90;;;;;;5047969;28;20988;-70
2021/06/04 05:19:28;;;;;;;12.90;11.80;;;16.50;99.90;;;;;;5054164;28;20768;-70
2021/06/04 05:21:55;;;;;;;12.47;11.23;;;16.60;99.90;;;;;;5051571;28;20550;-70
2021/06/04 05:24:21;;;;;;;13.53;12.20;;;16.60;99.90;;;;;;5044872;28;20502;-70
2021/06/04 05:26:47;;;;;;;14.60;13.17;;;16.70;99.90;;;;;;5049532;28;20515;-70
2021/06/04 05:29:12;;;;;;;13.50;12.20;;;16.70;99.90;;;;;;5051966;28;20796;-70
2021/06/04 05:31:39;;;;;;;13.40;12.20;;;16.80;99.90;;;;;;5041737;28;20165;-70
2021/06/04 05:34:07;;;;;;;12.90;11.77;;;16.80;99.90;;;;;;5050452;28;20219;-70
2021/06/04 05:36:34;;;;;;;13.17;11.97;;;16.90;99.90;;;;;;5047711;28;20423;-70
2021/06/04 05:39:12;;;;;;;12.33;11.17;;;16.90;99.90;;;;;;5053678;28;20797;-70
2021/06/04 05:41:39;;;;;;;13.33;12.17;;;17.00;99.90;;;;;;5048204;28;20447;-70
2021/06/04 05:44:07;;;;;;;12.90;11.60;;;17.00;99.90;;;;;;5051738;28;20467;-70
2021/06/04 05:46:33;;;;;;;13.50;12.30;;;17.10;99.90;;;;;;5044904;28;20431;-69
2021/06/04 05:48:58;;;;;;;12.27;11.17;;;17.20;99.90;;;;;;5048201;28;20447;-69
2021/06/04 05:51:29;;;;;;;11.57;10.50;;;17.20;99.90;;;;;;5052376;28;20641;-68
2021/06/04 05:53:55;;;;;;;13.60;12.20;;;17.30;99.90;;;;;;5035562;28;20288;-69
2021/06/04 05:56:24;;;;;;;13.40;12.10;;;17.30;99.90;;;;;;5050889;28;20522;-71
2021/06/04 05:58:51;;;;;;;13.03;11.73;;;17.40;99.90;;;;;;5048536;28;20602;-71
2021/06/04 06:01:33;;;;;;;13.80;12.63;;;17.50;99.90;;;;;;5047675;28;20963;-70
2021/06/04 06:03:59;;;;;;;12.33;11.13;;;17.40;99.90;;;;;;5048534;28;20423;-70
2021/06/04 06:06:24;;;;;;;10.57;9.67;;;17.50;99.90;;;;;;5048111;28;20472;-70
2021/06/04 06:08:50;;;;;;;11.03;10.23;;;17.60;99.90;;;;;;5050865;28;21045;-70
2021/06/04 06:11:22;;;;;;;11.67;10.70;;;17.60;99.90;;;;;;5048007;28;20638;-71
2021/06/04 06:13:48;;;;;;;10.60;9.67;;;17.70;99.90;;;;;;5052438;28;20647;-71
2021/06/04 06:16:13;;;;;;;12.90;11.90;;;17.80;99.90;;;;;;5049245;28;20488;-71
2021/06/04 06:18:39;;;;;;;11.83;10.80;;;17.80;99.90;;;;;;5049679;28;20439;-71
2021/06/04 06:21:05;;;;;;;10.83;9.93;;;17.90;99.90;;;;;;5051957;28;20664;-71
2021/06/04 06:23:35;;;;;;;10.93;10.10;;;17.90;99.90;;;;;;5044677;28;20178;-73
2021/06/04 06:26:09;;;;;;;10.73;9.63;;;18.00;99.90;;;;;;5049068;28;20955;-73
2021/06/04 06:28:37;;;;;;;9.80;9.00;;;18.00;99.90;;;;;;5049808;28;20423;-72
2021/06/04 06:31:06;;;;;;;10.23;9.53;;;18.10;99.90;;;;;;5052295;28;21198;-73
2021/06/04 06:33:32;;;;;;;11.50;10.50;;;18.20;99.90;;;;;;5053136;28;20443;-72
2021/06/04 06:36:01;;;;;;;11.03;10.10;;;18.30;99.90;;;;;;5051487;28;20423;-72
2021/06/04 06:38:29;;;;;;;9.60;8.90;;;18.40;99.90;;;;;;5052710;28;20746;-73
2021/06/04 06:40:56;;;;;;;8.83;8.23;;;18.50;99.90;;;;;;5050793;28;20459;-72
2021/06/04 06:43:24;;;;;;;9.90;9.10;;;18.50;99.90;;;;;;5053184;28;20722;-73
2021/06/04 06:45:50;;;;;;;9.60;8.80;;;18.70;99.90;;;;;;5053188;28;20411;-72
2021/06/04 06:48:16;;;;;;;8.80;8.00;;;18.70;99.90;;;;;;5050796;28;20440;-72
2021/06/04 06:50:43;;;;;;;10.40;9.50;;;18.80;99.90;;;;;;5052109;28;20258;-73
2021/06/04 06:53:11;;;;;;;9.47;8.67;;;18.90;99.90;;;;;;5049633;28;20531;-73
2021/06/04 06:55:38;;;;;;;10.13;9.20;;;19.00;99.90;;;;;;5053138;28;20723;-73
2021/06/04 06:58:06;;;;;;;9.73;8.97;;;19.10;99.90;;;;;;5050124;28;21291;-72
2021/06/04 07:00:42;;;;;;;8.60;8.00;;;19.10;99.90;;;;;;5047518;28;20440;-73
2021/06/04 07:03:10;;;;;;;9.50;7.60;;;19.30;99.90;;;;;;5051333;28;20452;-73
2021/06/04 07:05:37;;;;;;;8.33;7.73;;;19.30;99.90;;;;;;5050288;28;20481;-73
2021/06/04 07:08:07;;;;;;;9.07;8.37;;;19.50;99.90;;;;;;5048963;28;20431;-73
2021/06/04 07:10:34;;;;;;;7.63;7.03;;;19.50;99.90;;;;;;5050960;28;20431;-72
2021/06/04 07:13:02;;;;;;;7.73;7.13;;;19.60;99.90;;;;;;5050846;28;20537;-72
2021/06/04 07:15:29;;;;;;;9.40;7.50;;;19.70;99.90;;;;;;5047930;28;20442;-73
2021/06/04 07:17:58;;;;;;;8.60;8.00;;;19.80;99.90;;;;;;5052030;28;20489;-73
2021/06/04 07:20:25;;;;;;;7.70;7.20;;;19.80;99.90;;;;;;5052356;28;20446;-73
2021/06/04 07:22:53;;;;;;;8.73;8.03;;;19.90;99.90;;;;;;5051720;28;20427;-73
2021/06/04 07:25:20;;;;;;;8.33;7.53;;;19.90;99.90;;;;;;5052494;28;20827;-73
2021/06/04 07:27:48;;;;;;;7.87;7.17;;;20.00;99.90;;;;;;5046817;28;20454;-73
2021/06/04 07:30:21;;;;;;;7.90;7.40;;;20.00;99.90;;;;;;5048821;28;20507;-73
2021/06/04 07:32:47;;;;;;;7.93;7.33;;;20.10;99.90;;;;;;5047092;28;20763;-73
2021/06/04 07:35:17;;;;;;;7.77;7.23;;;20.30;99.90;;;;;;5042930;28;20489;-73
2021/06/04 07:37:43;;;;;;;8.10;7.53;;;20.30;99.90;;;;;;5051246;28;20885;-72
2021/06/04 07:40:12;;;;;;;7.70;6.97;;;20.40;99.90;;;;;;5052323;28;20843;-73
2021/06/04 07:42:38;;;;;;;7.73;7.23;;;20.50;99.90;;;;;;5051197;28;20515;-73
2021/06/04 07:45:05;;;;;;;7.47;6.77;;;20.50;99.90;;;;;;5050232;28;20522;-73
2021/06/04 07:47:31;;;;;;;6.50;6.10;;;20.60;99.90;;;;;;5050132;28;20701;-73
2021/06/04 07:49:57;;;;;;;8.30;7.70;;;20.60;99.90;;;;;;5052264;28;20531;-72
2021/06/04 07:52:22;;;;;;;8.00;7.30;;;20.70;99.90;;;;;;5051165;28;20438;-72
2021/06/04 07:54:50;;;;;;;7.13;6.53;;;20.80;99.90;;;;;;5051348;28;20238;-73
2021/06/04 07:57:16;;;;;;;8.07;7.47;;;20.90;99.90;;;;;;5049239;28;20181;-73
2021/06/04 07:59:41;;;;;;;6.97;6.53;;;21.00;99.90;;;;;;5049192;28;20715;-73
2021/06/04 08:02:08;;;;;;;7.70;7.20;;;21.10;99.90;;;;;;5051587;28;20682;-73
2021/06/04 08:04:33;;;;;;;8.00;7.40;;;21.10;99.90;;;;;;5047464;28;20634;-73
2021/06/04 08:06:59;;;;;;;6.90;6.40;;;21.30;99.90;;;;;;5050533;28;20419;-72
2021/06/04 08:09:25;;;;;;;7.20;6.70;;;21.40;99.90;;;;;;5045907;28;20246;-72
2021/06/04 08:11:57;;;;;;;6.87;6.37;;;21.50;99.90;;;;;;5039254;28;20177;-73
2021/06/04 08:14:30;;;;;;;6.00;5.70;;;21.50;99.90;;;;;;5049571;28;20165;-73
2021/06/04 08:16:58;;;;;;;5.90;5.60;;;21.60;99.90;;;;;;5052067;28;20888;-73
2021/06/04 08:19:25;;;;;;;5.90;5.60;;;21.70;99.90;;;;;;5051984;28;20486;-73
2021/06/04 08:21:54;;;;;;;6.03;5.63;;;21.80;99.90;;;;;;5048228;28;20456;-73
2021/06/04 08:24:26;;;;;;;6.70;6.00;;;21.80;99.90;;;;;;5051554;28;20569;-72
2021/06/04 08:26:53;;;;;;;6.63;6.13;;;21.90;99.90;;;;;;5054198;28;20419;-73
2021/06/04 08:29:19;;;;;;;6.30;5.70;;;21.90;99.90;;;;;;5054732;28;20801;-72
2021/06/04 08:31:44;;;;;;;6.60;6.20;;;21.90;99.90;;;;;;5054944;28;20423;-73
2021/06/04 08:34:11;;;;;;;7.07;6.67;;;22.00;99.90;;;;;;5055576;28;20433;-73
2021/06/04 08:36:38;;;;;;;7.80;7.20;;;22.20;99.90;;;;;;5055672;28;20189;-73
2021/06/04 08:39:15;;;;;;;7.10;6.70;;;22.30;99.90;;;;;;5052458;28;20519;-72
2021/06/04 08:42:18;;;;;;;6.03;5.63;;;22.40;99.90;;;;;;5054125;28;20459;-72
2021/06/04 08:45:02;;;;;;;7.33;6.73;;;22.60;99.90;;;;;;5055678;28;20725;-72
2021/06/04 08:47:31;;;;;;;6.60;6.20;;;22.70;99.90;;;;;;5054785;28;20431;-73
2021/06/04 08:50:18;;;;;;;6.67;6.27;;;22.90;99.90;;;;;;5054544;28;20439;-72
2021/06/04 08:53:10;;;;;;;6.37;5.87;;;23.00;99.90;;;;;;5055121;28;20514;-73
2021/06/04 08:56:03;;;;;;;6.47;6.13;;;23.20;99.90;;;;;;5054018;28;20645;-72
2021/06/04 08:58:58;;;;;;;7.90;7.40;;;23.30;99.90;;;;;;5054444;28;20423;-72
2021/06/04 09:01:31;;;;;;;6.70;6.20;;;23.50;99.90;;;;;;5046376;28;20463;-73
2021/06/04 09:04:02;;;;;;;8.27;7.50;;;23.40;99.90;;;;;;5054021;28;20809;-72
2021/06/04 09:06:46;;;;;;;7.80;7.30;;;23.50;99.90;;;;;;5054840;28;20755;-72
2021/06/04 09:09:15;;;;;;;7.33;6.93;;;23.50;99.90;;;;;;5055373;28;20403;-73
2021/06/04 09:11:41;;;;;;;7.50;6.90;;;23.50;99.90;;;;;;5053292;28;20435;-72
2021/06/04 09:14:07;;;;;;;6.90;6.47;;;23.70;99.90;;;;;;5053040;28;20912;-72
2021/06/04 09:16:59;;;;;;;7.50;7.10;;;23.90;99.90;;;;;;5055134;28;20484;-73
2021/06/04 09:19:46;;;;;;;7.23;6.80;;;24.10;99.90;;;;;;5055107;28;20735;-72
2021/06/04 09:22:12;;;;;;;6.60;6.20;;;24.20;99.90;;;;;;5052550;28;20462;-72
2021/06/04 09:24:42;;;;;;;8.07;7.47;;;24.40;99.90;;;;;;5053803;28;20419;-72
2021/06/04 09:27:36;;;;;;;7.07;6.53;;;24.50;99.90;;;;;;5053451;28;20508;-72
2021/06/04 09:30:13;;;;;;;6.40;6.00;;;24.70;99.90;;;;;;5050753;28;20470;-72
2021/06/04 09:32:40;;;;;;;7.00;6.50;;;24.80;99.90;;;;;;5053568;28;20953;-72
2021/06/04 09:35:16;;;;;;;6.97;6.57;;;24.80;99.90;;;;;;5053322;28;20412;-72
2021/06/04 09:37:43;;;;;;;7.03;6.63;;;24.80;99.90;;;;;;5053056;28;20824;-73
2021/06/04 09:40:27;;;;;;;7.07;6.43;;;24.80;99.90;;;;;;5055127;28;20404;-73
2021/06/04 09:43:03;;;;;;;7.00;6.60;;;24.50;99.90;;;;;;5053722;28;20966;-72
2021/06/04 09:45:33;;;;;;;7.60;6.90;;;24.40;99.90;;;;;;5053868;28;20428;-72
2021/06/04 09:48:28;;;;;;;5.97;5.67;;;24.60;99.90;;;;;;5051130;28;20497;-73
2021/06/04 09:51:08;;;;;;;7.10;6.70;;;24.80;99.90;;;;;;5053654;28;20443;-72
2021/06/04 09:53:34;;;;;;;6.00;5.70;;;25.20;99.90;;;;;;5054095;28;20415;-72
2021/06/04 09:56:05;;;;;;;7.17;6.77;;;25.50;99.90;;;;;;5053177;28;20423;-72
2021/06/04 09:58:32;;;;;;;6.47;6.03;;;25.60;99.90;;;;;;5054341;28;20184;-72
2021/06/04 10:01:03;;;;;;;6.80;6.30;;;25.70;99.90;;;;;;5048851;28;20451;-72
2021/06/04 10:03:45;;;;;;;6.87;6.37;;;25.80;99.90;;;;;;5051502;28;20929;-71
2021/06/04 10:06:25;;;;;;;6.40;6.10;;;25.60;99.90;;;;;;5053048;28;20757;-73
2021/06/04 10:09:20;;;;;;;6.80;6.30;;;25.80;99.90;;;;;;5053635;28;20424;-73
2021/06/04 10:11:51;;;;;;;7.50;7.00;;;26.00;99.90;;;;;;5052785;28;20973;-74
2021/06/04 10:20:27;;;;;;;8.20;7.60;;;26.40;99.90;;;;;;5052310;28;20442;-73
2021/06/04 10:23:40;;;;;;;7.83;7.23;;;26.20;99.90;;;;;;5052323;28;20424;-74
2021/06/04 10:26:26;;;;;;;7.77;7.13;;;26.00;99.90;;;;;;5047905;28;20416;-74
2021/06/04 10:28:58;;;;;;;7.60;6.90;;;25.90;99.90;;;;;;5053978;28;20999;-74
2021/06/04 10:31:45;;;;;;;6.53;6.13;;;25.80;99.90;;;;;;5051776;28;20424;-74
2021/06/04 10:34:48;;;;;;;5.03;4.83;;;25.80;99.90;;;;;;5053598;28;20498;-74
2021/06/04 10:37:31;;;;;;;5.83;5.37;;;25.70;99.90;;;;;;5051252;28;20433;-76
2021/06/04 10:40:17;;;;;;;4.73;4.30;;;25.90;99.90;;;;;;5053551;28;20410;-76
2021/06/04 10:42:42;;;;;;;4.10;3.90;;;25.90;99.90;;;;;;5052269;28;20796;-76
2021/06/04 10:45:17;;;;;;;4.67;4.40;;;25.80;99.90;;;;;;5052449;28;20424;-76
2021/06/04 10:48:16;;;;;;;4.40;4.20;;;25.70;99.90;;;;;;5053519;28;20165;-76
2021/06/04 10:51:02;;;;;;;4.70;4.50;;;25.50;99.90;;;;;;5053084;28;20420;-76
2021/06/04 10:53:38;;;;;;;5.20;4.80;;;25.60;99.90;;;;;;5051998;28;20887;-76
2021/06/04 10:56:06;;;;;;;4.47;4.27;;;26.00;99.90;;;;;;5050516;28;20400;-76
2021/06/04 10:59:12;;;;;;;4.97;4.60;;;26.10;99.90;;;;;;5052419;28;20424;-76
2021/06/04 11:01:55;;;;;;;4.17;3.90;;;26.20;99.90;;;;;;5052094;28;20479;-75
2021/06/04 11:04:34;;;;;;;4.60;4.30;;;26.30;99.90;;;;;;5046738;28;20420;-76
2021/06/04 11:07:13;;;;;;;5.40;5.10;;;26.70;99.90;;;;;;5049223;28;20534;-75
2021/06/04 11:09:57;;;;;;;4.07;3.97;;;27.20;99.90;;;;;;5052775;28;20399;-76
2021/06/04 11:13:00;;;;;;;5.07;4.70;;;27.60;99.90;;;;;;5043727;28;20465;-76
2021/06/04 11:15:28;;;;;;;4.20;4.00;;;28.00;99.90;;;;;;5051428;28;20441;-76
2021/06/04 11:18:21;;;;;;;5.57;5.17;;;28.20;99.90;;;;;;5053008;28;20892;-76
2021/06/04 11:20:56;;;;;;;4.90;4.60;;;28.30;99.90;;;;;;5047201;28;20521;-76
2021/06/04 11:23:40;;;;;;;5.27;4.93;;;28.30;99.90;;;;;;5051904;28;20880;-76
2021/06/04 11:26:13;;;;;;;4.33;4.13;;;27.90;99.90;;;;;;5048082;28;20716;-76
2021/06/04 11:29:06;;;;;;;4.87;4.67;;;27.50;99.90;;;;;;5047324;28;20416;-76
2021/06/04 11:31:48;;;;;;;4.30;4.10;;;27.30;99.90;;;;;;5051556;28;20419;-76
2021/06/04 11:34:24;;;;;;;4.90;4.67;;;27.10;99.90;;;;;;5051763;28;20906;-76
2021/06/04 11:36:50;;;;;;;6.17;4.67;;;26.90;99.90;;;;;;5051116;28;20472;-75
2021/06/04 11:39:32;;;;;;;4.70;4.40;;;26.90;99.90;;;;;;5050851;28;20485;-74
2021/06/04 11:42:00;;;;;;;5.10;4.70;;;26.80;99.90;;;;;;5051067;28;20506;-75
2021/06/04 11:44:50;;;;;;;4.90;4.70;;;26.90;99.90;;;;;;5051861;28;20830;-74
2021/06/04 11:47:18;;;;;;;4.90;4.60;;;27.00;99.90;;;;;;5040744;28;20447;-76
2021/06/04 11:49:53;;;;;;;5.60;5.20;;;27.70;99.90;;;;;;5044306;28;20452;-76
2021/06/04 11:52:26;;;;;;;4.57;4.27;;;28.20;99.90;;;;;;5048657;28;20445;-76
2021/06/04 11:55:07;;;;;;;4.80;4.40;;;28.30;99.90;;;;;;5048996;28;20755;-76
2021/06/04 11:57:49;;;;;;;4.87;4.57;;;28.60;99.90;;;;;;5044998;28;20416;-76
2021/06/04 12:00:39;;;;;;;4.63;4.30;;;28.90;99.90;;;;;;5044344;28;20980;-76
2021/06/04 12:03:04;;;;;;;5.30;4.93;;;29.30;99.90;;;;;;5047195;28;20431;-76
2021/06/04 12:05:36;;;;;;;4.83;4.63;;;29.50;99.90;;;;;;5049568;28;20914;-76
2021/06/04 12:08:16;;;;;;;5.40;5.10;;;29.70;99.90;;;;;;5048869;28;20672;-76
2021/06/04 12:11:12;;;;;;;4.97;4.70;;;29.70;99.90;;;;;;5044834;28;20432;-76
2021/06/04 12:14:05;;;;;;;5.03;4.73;;;29.80;99.90;;;;;;5046658;28;20435;-75
2021/06/04 12:16:33;;;;;;;5.53;5.10;;;30.00;99.90;;;;;;5044457;28;20428;-77
2021/06/04 12:19:16;;;;;;;5.47;5.00;;;29.60;99.90;;;;;;5046792;28;20427;-76
2021/06/04 12:21:45;;;;;;;5.27;4.97;;;29.10;99.90;;;;;;5048985;28;20546;-76
2021/06/04 12:24:17;;;;;;;5.70;5.40;;;28.80;99.90;;;;;;5049020;28;20758;-76
2021/06/04 12:26:57;;;;;;;6.47;5.97;;;28.50;99.90;;;;;;5050756;28;20423;-76
2021/06/04 12:29:31;;;;;;;5.60;5.20;;;28.10;99.90;;;;;;5051989;28;20407;-77
2021/06/04 12:32:16;;;;;;;5.40;5.00;;;27.80;99.90;;;;;;5050437;28;20538;-76
2021/06/04 12:34:42;;;;;;;5.60;5.40;;;28.00;99.90;;;;;;5051317;28;20437;-76
2021/06/04 12:37:25;;;;;;;5.37;5.07;;;28.40;99.90;;;;;;5047929;28;20404;-76
2021/06/04 12:40:25;;;;;;;5.20;4.90;;;28.70;99.90;;;;;;5051663;28;20169;-76
2021/06/04 12:43:09;;;;;;;5.80;5.40;;;29.00;99.90;;;;;;5051020;28;20420;-76
2021/06/04 12:45:44;;;;;;;5.10;4.67;;;29.30;99.90;;;;;;5052210;28;20395;-76
2021/06/04 12:48:26;;;;;;;5.27;5.07;;;29.60;99.90;;;;;;5051455;28;20492;-76
2021/06/04 12:50:57;;;;;;;4.83;4.50;;;29.60;99.90;;;;;;5050228;28;20431;-76
2021/06/04 12:53:37;;;;;;;5.50;5.10;;;29.70;99.90;;;;;;5050402;28;20440;-76
2021/06/04 12:56:12;;;;;;;5.13;4.83;;;29.90;99.90;;;;;;5049818;28;20419;-76
2021/06/04 12:58:46;;;;;;;5.17;4.87;;;30.10;99.90;;;;;;5051655;28;20421;-76
2021/06/04 13:01:14;;;;;;;4.80;4.50;;;30.50;99.90;;;;;;5050193;28;20467;-76
2021/06/04 13:03:47;;;;;;;5.00;4.70;;;30.90;99.90;;;;;;5048207;28;20416;-76
2021/06/04 13:06:20;;;;;;;5.07;4.80;;;31.10;99.90;;;;;;5051492;28;20726;-76
2021/06/04 13:08:48;;;;;;;5.50;5.20;;;30.80;99.90;;;;;;5051770;28;20503;-76
2021/06/04 13:11:35;;;;;;;4.80;4.40;;;30.10;99.90;;;;;;5048302;28;20459;-76
2021/06/04 13:14:15;;;;;;;4.73;4.53;;;29.50;99.90;;;;;;5055052;28;20438;-76
2021/06/04 13:16:40;;;;;;;5.20;5.00;;;29.60;99.90;;;;;;5055008;28;20406;-76
2021/06/04 13:19:15;;;;;;;4.90;4.67;;;30.10;99.90;;;;;;5054493;28;20819;-76
2021/06/04 13:21:42;;;;;;;4.70;4.40;;;30.40;99.90;;;;;;5053032;28;20189;-76